Terminal Aerodrome Forecast
Issued by NWS

Home | Current Version | Previous Version | Text Only | Print | Product List | Glossary On
Versions: 1 2 3 4 5 6 7 8 9 10 11 12 13 14 15 16 17 18 19 20 21 22 23 24
000
FTUS41 KPBZ 221100
TAFFKL
TAF
KFKL 221130Z 2212/2312 VRB03KT 2SM BR VCSH SCT002 OVC006
      TEMPO 2212/2214 1SM BR BKN002
     FM221400 VRB04KT 3SM BR VCSH BKN010
     FM221700 21008KT P6SM VCSH BKN035
     FM230700 VRB03KT 2SM BR SCT040
      AMD LTD TO CLD VIS AND WIND=

USA.gov is the U.S. government's official web portal to all federal, state and local government web resources and services.